createdAt,value
2019-04-30T00:01:18.475Z,11.00
2019-04-30T00:04:05.739Z,11.00
2019-04-30T00:06:39.524Z,11.00
2019-04-30T00:09:09.693Z,11.10
2019-04-30T00:11:42.354Z,11.10
2019-04-30T00:14:12.542Z,11.20
2019-04-30T00:16:42.915Z,11.20
2019-04-30T00:19:15.861Z,11.20
2019-04-30T00:21:48.265Z,11.30
2019-04-30T00:24:17.233Z,11.30
2019-04-30T00:26:52.177Z,11.30
2019-04-30T00:29:26.943Z,11.30
2019-04-30T00:31:52.035Z,11.30
2019-04-30T00:34:22.157Z,11.30
2019-04-30T00:36:52.439Z,11.30
2019-04-30T00:39:22.803Z,11.30
2019-04-30T00:41:54.670Z,11.30
2019-04-30T00:44:28.372Z,11.30
2019-04-30T00:47:00.662Z,11.30
2019-04-30T00:49:29.322Z,11.30
2019-04-30T00:51:59.581Z,11.30
2019-04-30T00:54:30.971Z,11.30
2019-04-30T00:57:04.424Z,11.90
2019-04-30T00:59:34.944Z,11.30
2019-04-30T01:02:27.929Z,11.30
2019-04-30T01:04:53.332Z,11.30
2019-04-30T01:07:23.829Z,11.30
2019-04-30T01:09:55.304Z,11.20
2019-04-30T01:12:30.983Z,11.20
2019-04-30T01:14:59.005Z,11.10
2019-04-30T01:17:29.949Z,11.10
2019-04-30T01:20:01.065Z,11.10
2019-04-30T01:22:32.925Z,11.10
2019-04-30T01:25:08.935Z,11.10
2019-04-30T01:27:39.531Z,11.10
2019-04-30T01:30:08.758Z,11.10
2019-04-30T01:32:39.528Z,11.00
2019-04-30T01:35:09.781Z,11.00
2019-04-30T01:37:40.218Z,11.00
2019-04-30T01:40:13.887Z,11.00
2019-04-30T01:42:48.007Z,11.00
2019-04-30T01:45:15.408Z,11.00
2019-04-30T01:47:46.543Z,11.00
2019-04-30T01:50:16.811Z,11.00
2019-04-30T01:52:52.880Z,11.00
2019-04-30T01:55:41.454Z,11.00
2019-04-30T01:58:33.280Z,11.00
2019-04-30T02:01:06.716Z,10.90
2019-04-30T02:03:37.260Z,10.90
2019-04-30T02:06:09.149Z,10.90
2019-04-30T02:08:39.607Z,10.90
2019-04-30T02:11:09.772Z,10.90
2019-04-30T02:13:39.964Z,11.00
2019-04-30T02:16:11.415Z,11.00
2019-04-30T02:18:41.709Z,11.00
2019-04-30T02:23:41.625Z,11.00
2019-04-30T02:26:11.807Z,11.00
2019-04-30T02:28:41.874Z,11.10
2019-04-30T02:31:12.027Z,11.10
2019-04-30T02:33:44.164Z,11.10
2019-04-30T02:36:22.867Z,11.10
2019-04-30T02:38:54.657Z,11.00
2019-04-30T02:41:25.849Z,11.00
2019-04-30T02:43:59.685Z,11.00
2019-04-30T02:46:32.303Z,11.00
2019-04-30T02:49:03.075Z,11.00
2019-04-30T02:51:35.028Z,11.00
2019-04-30T02:54:20.319Z,11.00
2019-04-30T02:57:11.297Z,11.00
2019-04-30T02:59:59.971Z,11.00
2019-04-30T03:02:31.899Z,10.90
2019-04-30T03:05:02.027Z,10.90
2019-04-30T03:07:32.212Z,10.90
2019-04-30T03:10:02.387Z,10.80
2019-04-30T03:12:33.771Z,10.90
2019-04-30T03:15:04.514Z,10.90
2019-04-30T03:17:54.109Z,10.90
2019-04-30T03:20:35.535Z,10.90
2019-04-30T03:23:02.619Z,10.90
2019-04-30T03:25:32.694Z,10.90
2019-04-30T03:28:02.887Z,10.90
2019-04-30T03:30:33.214Z,10.90
2019-04-30T03:33:03.538Z,10.90
2019-04-30T03:35:33.777Z,10.90
2019-04-30T03:38:04.946Z,10.80
2019-04-30T03:40:35.482Z,10.90
2019-04-30T03:43:07.132Z,10.90
2019-04-30T03:45:40.008Z,10.90
2019-04-30T03:48:10.156Z,10.90
2019-04-30T03:50:50.195Z,10.90
2019-04-30T03:53:12.412Z,10.90
2019-04-30T03:55:42.660Z,10.90
2019-04-30T03:58:13.214Z,10.70
2019-04-30T04:01:11.519Z,10.90
2019-04-30T04:04:00.740Z,11.00
2019-04-30T04:06:39.303Z,11.50
2019-04-30T04:09:22.164Z,11.00
2019-04-30T04:11:51.689Z,10.90
2019-04-30T04:14:21.856Z,10.10
2019-04-30T04:16:52.062Z,11.00
2019-04-30T04:19:22.253Z,11.00
2019-04-30T04:21:52.721Z,10.40
2019-04-30T04:24:23.695Z,11.00
2019-04-30T04:26:53.933Z,11.00
2019-04-30T04:29:26.145Z,11.00
2019-04-30T04:31:56.320Z,11.10
2019-04-30T04:34:30.183Z,11.10
2019-04-30T04:37:00.138Z,11.00
2019-04-30T04:39:30.393Z,11.10
2019-04-30T04:42:00.659Z,11.10
2019-04-30T04:44:31.055Z,11.10
2019-04-30T04:47:01.268Z,11.10
2019-04-30T04:49:32.696Z,11.10
2019-04-30T04:52:02.783Z,10.90
2019-04-30T04:54:33.186Z,11.10
2019-04-30T04:57:17.067Z,11.10
2019-04-30T04:59:36.558Z,11.10
2019-04-30T05:02:24.083Z,11.20
2019-04-30T05:04:55.588Z,11.10
2019-04-30T05:07:28.493Z,11.10
2019-04-30T05:10:00.604Z,11.20
2019-04-30T05:12:32.274Z,11.10
2019-04-30T05:15:03.190Z,10.30
2019-04-30T05:17:33.281Z,11.10
2019-04-30T05:20:04.264Z,11.10
2019-04-30T05:22:34.608Z,12.30
2019-04-30T05:25:05.029Z,11.10
2019-04-30T05:27:35.385Z,11.20
2019-04-30T05:30:09.722Z,11.10
2019-04-30T05:32:40.177Z,11.20
2019-04-30T05:35:10.513Z,11.20
2019-04-30T05:37:41.227Z,11.30
2019-04-30T05:40:12.043Z,11.30
2019-04-30T05:42:42.598Z,11.30
2019-04-30T05:45:13.466Z,11.40
2019-04-30T05:47:43.678Z,11.40
2019-04-30T05:50:14.410Z,11.40
2019-04-30T05:52:44.664Z,11.50
2019-04-30T05:55:15.066Z,11.50
2019-04-30T05:57:53.837Z,11.60
2019-04-30T06:00:19.081Z,11.70
2019-04-30T06:02:49.855Z,11.70
2019-04-30T06:05:22.669Z,11.80
2019-04-30T06:08:19.117Z,11.80
2019-04-30T06:10:55.749Z,12.00
2019-04-30T06:13:51.203Z,12.10
2019-04-30T06:16:23.914Z,12.10
2019-04-30T06:18:53.998Z,12.20
2019-04-30T06:21:26.997Z,12.20
2019-04-30T06:26:31.272Z,12.10
2019-04-30T06:29:01.499Z,12.20
2019-04-30T06:31:37.238Z,12.80
2019-04-30T06:34:03.893Z,12.20
2019-04-30T06:37:03.852Z,12.10
2019-04-30T06:39:35.753Z,12.20
2019-04-30T06:42:10.106Z,13.90
2019-04-30T06:44:41.332Z,12.40
2019-04-30T06:47:11.016Z,12.50
2019-04-30T06:49:41.263Z,12.70
2019-04-30T06:52:19.997Z,12.80
2019-04-30T06:54:49.673Z,12.90
2019-04-30T06:57:20.007Z,14.60
2019-04-30T06:59:51.682Z,13.20
2019-04-30T07:02:22.883Z,13.20
2019-04-30T07:04:54.279Z,13.60
2019-04-30T07:07:36.245Z,13.40
2019-04-30T07:10:03.297Z,13.40
2019-04-30T07:12:39.018Z,13.40
2019-04-30T07:15:09.490Z,13.50
2019-04-30T07:17:40.679Z,13.60
2019-04-30T07:20:13.931Z,13.70
2019-04-30T07:22:49.811Z,13.90
2019-04-30T07:25:16.665Z,14.10
2019-04-30T07:27:46.892Z,13.90
2019-04-30T07:30:19.108Z,14.20
2019-04-30T07:32:49.201Z,14.20
2019-04-30T07:35:19.841Z,14.30
2019-04-30T07:37:54.546Z,14.40
2019-04-30T07:40:23.717Z,14.40
2019-04-30T07:42:53.997Z,14.60
2019-04-30T07:45:25.919Z,14.60
2019-04-30T07:47:59.363Z,14.50
2019-04-30T07:50:32.234Z,14.50
2019-04-30T07:53:13.764Z,14.50
2019-04-30T07:55:43.918Z,14.60
2019-04-30T07:58:14.350Z,14.70
2019-04-30T08:00:44.794Z,14.90
2019-04-30T08:03:33.231Z,15.00
2019-04-30T08:06:04.499Z,15.10
2019-04-30T08:08:35.380Z,15.10
2019-04-30T08:11:05.593Z,15.20
2019-04-30T08:13:39.348Z,15.30
2019-04-30T08:16:09.777Z,15.40
2019-04-30T08:18:40.389Z,15.60
2019-04-30T08:21:11.562Z,15.70
2019-04-30T08:23:42.428Z,15.70
2019-04-30T08:26:14.037Z,15.70
2019-04-30T08:28:44.608Z,15.60
2019-04-30T08:31:15.673Z,15.70
2019-04-30T08:33:48.920Z,15.70
2019-04-30T08:36:19.661Z,16.00
2019-04-30T08:38:51.127Z,15.90
2019-04-30T08:41:21.360Z,15.60
2019-04-30T08:43:51.526Z,15.60
2019-04-30T08:46:22.405Z,15.60
2019-04-30T08:48:53.847Z,15.70
2019-04-30T08:51:25.990Z,15.80
2019-04-30T08:53:58.543Z,15.80
2019-04-30T08:56:29.546Z,15.80
2019-04-30T08:59:00.033Z,16.00
2019-04-30T09:01:32.153Z,15.80
2019-04-30T09:04:02.378Z,15.80
2019-04-30T09:06:32.602Z,15.80
2019-04-30T09:09:29.550Z,15.90
2019-04-30T09:11:59.979Z,16.00
2019-04-30T09:14:30.821Z,16.00
2019-04-30T09:17:02.656Z,15.70
2019-04-30T09:19:35.342Z,16.30
2019-04-30T09:22:14.352Z,16.50
2019-04-30T09:24:39.227Z,16.60
2019-04-30T09:27:10.876Z,16.40
2019-04-30T09:29:41.451Z,16.20
2019-04-30T09:32:13.400Z,16.00
2019-04-30T09:34:44.037Z,15.90
2019-04-30T09:37:14.702Z,15.70
2019-04-30T09:39:44.963Z,15.30
2019-04-30T09:42:16.963Z,15.20
2019-04-30T09:44:49.256Z,15.10
2019-04-30T09:47:21.661Z,15.20
2019-04-30T09:49:56.439Z,15.30
2019-04-30T09:52:30.849Z,15.50
2019-04-30T09:55:03.706Z,15.60
2019-04-30T09:57:34.100Z,15.20
2019-04-30T10:00:05.105Z,15.80
2019-04-30T10:02:38.885Z,16.10
2019-04-30T10:05:10.956Z,16.10
2019-04-30T10:07:41.880Z,16.10
2019-04-30T10:10:14.713Z,16.20
2019-04-30T10:12:45.182Z,16.20
2019-04-30T10:15:33.119Z,16.20
2019-04-30T10:18:03.374Z,16.30
2019-04-30T10:20:43.963Z,16.30
2019-04-30T10:23:14.231Z,16.40
2019-04-30T10:25:45.856Z,16.50
2019-04-30T10:28:16.149Z,16.70
2019-04-30T10:30:58.074Z,17.90
2019-04-30T10:33:33.351Z,17.40
2019-04-30T10:36:09.288Z,17.40
2019-04-30T10:38:39.861Z,17.30
2019-04-30T10:41:18.755Z,17.00
2019-04-30T10:43:44.715Z,16.80
2019-04-30T10:46:15.635Z,16.40
2019-04-30T10:48:46.079Z,16.40
2019-04-30T10:51:18.811Z,16.40
2019-04-30T10:53:50.917Z,16.30
2019-04-30T10:56:21.494Z,16.30
2019-04-30T10:58:52.005Z,16.30
2019-04-30T11:01:22.608Z,16.30
2019-04-30T11:03:53.401Z,16.30
2019-04-30T11:06:24.293Z,16.30
2019-04-30T11:08:54.976Z,16.40
2019-04-30T11:11:28.297Z,16.40
2019-04-30T11:13:59.428Z,16.30
2019-04-30T11:16:31.248Z,16.20
2019-04-30T11:19:01.839Z,16.10
2019-04-30T11:21:32.741Z,16.10
2019-04-30T11:24:03.517Z,16.00
2019-04-30T11:26:35.859Z,15.80
2019-04-30T11:29:07.893Z,15.60
2019-04-30T11:31:56.242Z,15.50
2019-04-30T11:34:28.262Z,15.50
2019-04-30T11:36:58.703Z,15.60
2019-04-30T11:39:29.779Z,15.40
2019-04-30T11:42:00.230Z,15.40
2019-04-30T11:44:31.596Z,15.30
2019-04-30T11:47:21.999Z,15.30
2019-04-30T11:49:54.882Z,15.40
2019-04-30T11:52:26.857Z,15.50
2019-04-30T11:54:59.743Z,15.50
2019-04-30T11:57:36.226Z,15.50
2019-04-30T12:00:10.740Z,15.60
2019-04-30T12:02:42.421Z,15.70
2019-04-30T12:05:14.825Z,15.70
2019-04-30T12:08:19.482Z,15.70
2019-04-30T12:10:59.179Z,16.00
2019-04-30T12:13:34.662Z,16.10
2019-04-30T12:16:08.720Z,16.70
2019-04-30T12:18:39.470Z,16.40
2019-04-30T12:21:11.030Z,16.30
2019-04-30T12:23:41.816Z,15.80
2019-04-30T12:26:12.434Z,16.10
2019-04-30T12:28:43.241Z,16.00
2019-04-30T12:31:16.294Z,15.90
2019-04-30T12:33:48.501Z,15.90
2019-04-30T12:36:19.469Z,16.00
2019-04-30T12:38:50.188Z,16.20
2019-04-30T12:41:20.756Z,16.30
2019-04-30T12:43:51.264Z,16.40
2019-04-30T12:46:22.163Z,16.50
2019-04-30T12:48:59.588Z,16.70
2019-04-30T12:51:48.809Z,16.90
2019-04-30T12:54:36.759Z,17.00
2019-04-30T12:57:26.126Z,17.00
2019-04-30T12:59:58.527Z,17.00
2019-04-30T13:02:28.999Z,17.00
2019-04-30T13:05:02.067Z,17.00
2019-04-30T13:07:32.709Z,17.00
2019-04-30T13:10:10.796Z,16.80
2019-04-30T13:12:43.331Z,16.60
2019-04-30T13:15:13.948Z,16.50
2019-04-30T13:17:44.231Z,16.40
2019-04-30T13:22:48.762Z,16.50
2019-04-30T13:25:30.261Z,16.30
2019-04-30T13:27:54.246Z,18.00
2019-04-30T13:30:30.033Z,16.30
2019-04-30T13:33:14.550Z,16.20
2019-04-30T13:35:45.344Z,16.50
2019-04-30T13:38:21.602Z,16.40
2019-04-30T13:41:08.734Z,16.50
2019-04-30T13:43:55.962Z,16.70
2019-04-30T13:46:28.479Z,16.90
2019-04-30T13:48:58.856Z,17.40
2019-04-30T13:51:29.118Z,17.70
2019-04-30T13:53:59.192Z,17.90
2019-04-30T13:56:29.609Z,18.00
2019-04-30T13:59:01.384Z,18.00
2019-04-30T14:01:32.102Z,18.00
2019-04-30T14:04:12.453Z,18.00
2019-04-30T14:07:00.786Z,18.00
2019-04-30T14:09:32.095Z,17.80
2019-04-30T14:12:02.692Z,17.60
2019-04-30T14:14:32.941Z,17.50
2019-04-30T14:17:04.529Z,17.50
2019-04-30T14:19:34.904Z,17.60
2019-04-30T14:22:08.817Z,17.70
2019-04-30T14:24:38.723Z,17.90
2019-04-30T14:27:09.521Z,17.90
2019-04-30T14:29:39.814Z,17.70
2019-04-30T14:32:12.053Z,17.70
2019-04-30T14:34:42.364Z,17.70
2019-04-30T14:37:12.674Z,17.70
2019-04-30T14:39:43.095Z,17.60
2019-04-30T14:42:14.345Z,17.30
2019-04-30T14:44:49.541Z,17.30
2019-04-30T14:47:30.670Z,17.20
2019-04-30T14:50:16.227Z,17.00
2019-04-30T14:53:04.439Z,16.90
2019-04-30T14:55:50.587Z,16.60
2019-04-30T14:58:52.752Z,16.50
2019-04-30T15:01:36.512Z,16.60
2019-04-30T15:04:08.799Z,15.40
2019-04-30T15:06:39.120Z,16.90
2019-04-30T15:09:10.206Z,17.00
2019-04-30T15:11:40.551Z,17.20
2019-04-30T15:14:11.523Z,17.20
2019-04-30T15:16:41.831Z,17.10
2019-04-30T15:19:15.047Z,17.10
2019-04-30T15:21:52.211Z,17.10
2019-04-30T15:24:30.921Z,16.80
2019-04-30T15:27:04.783Z,17.20
2019-04-30T15:29:36.062Z,17.20
2019-04-30T15:32:08.528Z,17.30
2019-04-30T15:34:42.351Z,17.30
2019-04-30T15:37:19.283Z,17.30
2019-04-30T15:39:45.365Z,17.30
2019-04-30T15:42:17.907Z,17.40
2019-04-30T15:44:50.702Z,17.40
2019-04-30T15:47:22.558Z,17.50
2019-04-30T15:50:03.033Z,18.40
2019-04-30T15:52:33.651Z,17.70
2019-04-30T15:55:09.171Z,17.70
2019-04-30T15:58:00.625Z,17.70
2019-04-30T16:00:32.826Z,17.80
2019-04-30T16:03:09.513Z,17.70
2019-04-30T16:05:42.668Z,17.70
2019-04-30T16:08:32.706Z,17.70
2019-04-30T16:11:31.259Z,17.70
2019-04-30T16:14:09.839Z,17.80
2019-04-30T16:16:42.389Z,18.50
2019-04-30T16:19:15.246Z,17.80
2019-04-30T16:21:45.710Z,17.80
2019-04-30T16:24:18.769Z,17.70
2019-04-30T16:26:55.436Z,17.60
2019-04-30T16:29:25.842Z,17.50
2019-04-30T16:31:59.207Z,17.40
2019-04-30T16:34:30.459Z,17.40
2019-04-30T16:37:00.939Z,17.50
2019-04-30T16:39:31.245Z,17.40
2019-04-30T16:42:01.790Z,17.30
2019-04-30T16:44:32.216Z,17.30
2019-04-30T16:47:13.066Z,17.30
2019-04-30T16:49:34.698Z,17.20
2019-04-30T16:52:05.417Z,16.90
2019-04-30T16:54:35.639Z,16.90
2019-04-30T16:57:07.023Z,16.80
2019-04-30T16:59:42.152Z,16.60
2019-04-30T17:02:14.206Z,16.50
2019-04-30T17:05:06.083Z,16.40
2019-04-30T17:07:55.604Z,16.40
2019-04-30T17:10:39.515Z,16.30
2019-04-30T17:13:38.869Z,16.30
2019-04-30T17:16:11.966Z,16.20
2019-04-30T17:18:43.109Z,16.20
2019-04-30T17:21:13.444Z,16.20
2019-04-30T17:23:44.133Z,16.10
2019-04-30T17:26:14.409Z,16.00
2019-04-30T17:28:44.966Z,15.90
2019-04-30T17:31:15.457Z,15.80
2019-04-30T17:33:49.260Z,15.70
2019-04-30T17:36:19.615Z,15.70
2019-04-30T17:38:50.933Z,15.60
2019-04-30T17:41:21.112Z,15.50
2019-04-30T17:43:51.703Z,15.40
2019-04-30T17:46:21.893Z,15.40
2019-04-30T17:48:52.479Z,15.30
2019-04-30T17:51:23.010Z,15.20
2019-04-30T17:54:11.196Z,14.90
2019-04-30T17:56:41.874Z,15.10
2019-04-30T17:59:12.320Z,15.00
2019-04-30T18:01:45.657Z,14.90
2019-04-30T18:04:18.677Z,16.00
2019-04-30T18:06:51.002Z,14.80
2019-04-30T18:09:21.682Z,14.70
2019-04-30T18:11:52.190Z,14.60
2019-04-30T18:14:22.992Z,14.60
2019-04-30T18:16:53.482Z,14.40
2019-04-30T18:19:33.683Z,14.40
2019-04-30T18:22:31.878Z,14.40
2019-04-30T18:25:11.518Z,14.40
2019-04-30T18:27:51.041Z,14.00
2019-04-30T18:30:23.616Z,14.00
2019-04-30T18:32:53.771Z,13.80
2019-04-30T18:35:24.249Z,13.70
2019-04-30T18:37:54.741Z,13.70
2019-04-30T18:40:25.115Z,13.60
2019-04-30T18:42:55.882Z,13.60
2019-04-30T18:45:28.710Z,13.50
2019-04-30T18:47:59.434Z,12.20
2019-04-30T18:50:31.673Z,13.40
2019-04-30T18:53:04.993Z,13.40
2019-04-30T18:55:35.342Z,13.30
2019-04-30T18:58:06.119Z,13.20
2019-04-30T19:00:40.116Z,13.10
2019-04-30T19:03:10.329Z,13.10
2019-04-30T19:05:42.591Z,12.90
2019-04-30T19:08:19.447Z,12.80
2019-04-30T19:11:23.790Z,12.70
2019-04-30T19:14:09.507Z,12.60
2019-04-30T19:16:59.512Z,12.50
2019-04-30T19:19:46.580Z,12.40
2019-04-30T19:22:18.637Z,12.40
2019-04-30T19:24:58.120Z,12.30
2019-04-30T19:29:51.701Z,12.30
2019-04-30T19:32:22.014Z,12.30
2019-04-30T19:34:52.251Z,12.20
2019-04-30T19:37:22.960Z,12.20
2019-04-30T19:39:53.387Z,12.10
2019-04-30T19:42:23.657Z,12.10
2019-04-30T19:45:00.623Z,12.10
2019-04-30T19:47:26.661Z,12.00
2019-04-30T19:49:57.024Z,11.90
2019-04-30T19:52:29.666Z,11.90
2019-04-30T19:55:00.388Z,11.90
2019-04-30T19:57:30.825Z,11.90
2019-04-30T20:00:01.171Z,11.90
2019-04-30T20:02:31.715Z,11.90
2019-04-30T20:05:01.970Z,11.90
2019-04-30T20:07:32.484Z,12.00
2019-04-30T20:10:04.215Z,12.00
2019-04-30T20:12:34.878Z,12.00
2019-04-30T20:15:16.401Z,12.00
2019-04-30T20:17:38.671Z,12.10
2019-04-30T20:20:09.094Z,12.00
2019-04-30T20:22:39.353Z,12.20
2019-04-30T20:25:09.707Z,12.20
2019-04-30T20:27:40.929Z,12.30
2019-04-30T20:30:11.351Z,12.30
2019-04-30T20:32:41.550Z,12.30
2019-04-30T20:35:12.253Z,12.30
2019-04-30T20:38:00.013Z,12.30
2019-04-30T20:40:43.096Z,12.40
2019-04-30T20:43:04.150Z,12.40
2019-04-30T20:45:34.263Z,12.30
2019-04-30T20:48:04.896Z,12.30
2019-04-30T20:50:35.786Z,12.30
2019-04-30T20:53:08.733Z,12.20
2019-04-30T20:55:40.785Z,12.20
2019-04-30T20:58:13.733Z,12.20
2019-04-30T21:00:44.220Z,12.10
2019-04-30T21:03:14.785Z,12.00
2019-04-30T21:05:45.055Z,12.00
2019-04-30T21:08:16.634Z,11.90
2019-04-30T21:10:49.333Z,11.70
2019-04-30T21:13:19.500Z,11.70
2019-04-30T21:15:51.040Z,11.60
2019-04-30T21:18:21.222Z,11.60
2019-04-30T21:20:51.638Z,11.50
2019-04-30T21:23:21.980Z,11.40
2019-04-30T21:25:52.303Z,11.40
2019-04-30T21:28:23.583Z,11.40
2019-04-30T21:30:53.782Z,11.40
2019-04-30T21:33:33.994Z,11.50
2019-04-30T21:36:10.626Z,9.40
2019-04-30T21:38:41.372Z,11.50
2019-04-30T21:41:11.523Z,11.50
2019-04-30T21:43:42.178Z,11.50
2019-04-30T21:46:12.393Z,11.50
2019-04-30T21:48:43.004Z,11.50
2019-04-30T21:51:13.146Z,11.50
2019-04-30T21:53:43.490Z,11.40
2019-04-30T21:56:13.600Z,11.30
2019-04-30T21:58:43.792Z,11.30
2019-04-30T22:01:20.176Z,11.30
2019-04-30T22:03:51.420Z,11.30
2019-04-30T22:06:22.431Z,11.20
2019-04-30T22:08:52.834Z,11.20
2019-04-30T22:11:24.033Z,11.10
2019-04-30T22:13:54.247Z,11.00
2019-04-30T22:16:24.750Z,11.00
2019-04-30T22:18:55.273Z,11.00
2019-04-30T22:21:25.401Z,11.00
2019-04-30T22:23:55.855Z,11.10
2019-04-30T22:26:26.401Z,10.90
2019-04-30T22:28:56.629Z,10.80
2019-04-30T22:31:26.713Z,10.80
2019-04-30T22:33:58.862Z,10.70
2019-04-30T22:36:38.746Z,10.70
2019-04-30T22:39:41.474Z,10.70
2019-04-30T22:42:40.345Z,10.70
2019-04-30T22:45:19.486Z,10.70
2019-04-30T22:47:50.650Z,10.60
2019-04-30T22:50:21.067Z,10.60
2019-04-30T22:52:51.252Z,10.50
2019-04-30T22:55:21.691Z,10.40
2019-04-30T22:57:52.726Z,10.40
2019-04-30T23:00:36.788Z,10.50
2019-04-30T23:03:13.032Z,10.50
2019-04-30T23:05:43.139Z,10.50
2019-04-30T23:08:14.232Z,10.60
2019-04-30T23:10:44.727Z,10.50
2019-04-30T23:13:15.100Z,10.50
2019-04-30T23:15:45.258Z,10.50
2019-04-30T23:18:15.730Z,10.50
2019-04-30T23:20:46.056Z,10.50
2019-04-30T23:23:16.193Z,10.50
2019-04-30T23:25:46.558Z,10.50
2019-04-30T23:28:16.689Z,10.50
2019-04-30T23:30:47.142Z,10.50
2019-04-30T23:33:18.160Z,10.50
2019-04-30T23:35:48.577Z,10.50
2019-04-30T23:38:18.651Z,10.40
2019-04-30T23:40:51.099Z,10.40
2019-04-30T23:43:21.550Z,10.40
2019-04-30T23:45:52.237Z,10.30
2019-04-30T23:48:22.340Z,10.30
2019-04-30T23:50:52.855Z,10.30
2019-04-30T23:53:22.911Z,10.30
2019-04-30T23:55:53.440Z,10.20
2019-04-30T23:58:23.642Z,10.20
